sensor_id;sensor_type;location;lat;lon;timestamp;pressure;altitude;pressure_sealevel;temperature;humidity
21594;BME280;10959;51.328;7.322;2023-03-22T00:01:09;98279.72;;;12.52;71.07
21594;BME280;10959;51.328;7.322;2023-03-22T00:03:36;98268.03;;;12.51;71.44
21594;BME280;10959;51.328;7.322;2023-03-22T00:06:03;98271.88;;;12.47;71.48
21594;BME280;10959;51.328;7.322;2023-03-22T00:08:30;98273.63;;;12.48;71.47
21594;BME280;10959;51.328;7.322;2023-03-22T00:10:57;98267.28;;;12.49;71.37
21594;BME280;10959;51.328;7.322;2023-03-22T00:13:24;98265.63;;;12.47;71.57
21594;BME280;10959;51.328;7.322;2023-03-22T00:15:51;98271.03;;;12.47;71.44
21594;BME280;10959;51.328;7.322;2023-03-22T00:18:17;98273.63;;;12.48;71.53
21594;BME280;10959;51.328;7.322;2023-03-22T00:20:47;98265.63;;;12.47;71.31
21594;BME280;10959;51.328;7.322;2023-03-22T00:23:14;98257.44;;;12.48;71.66
21594;BME280;10959;51.328;7.322;2023-03-22T00:25:41;98264.56;;;12.49;71.61
21594;BME280;10959;51.328;7.322;2023-03-22T00:28:10;98258.97;;;12.52;71.56
21594;BME280;10959;51.328;7.322;2023-03-22T00:30:37;98255.69;;;12.47;71.70
21594;BME280;10959;51.328;7.322;2023-03-22T00:33:04;98253.78;;;12.49;71.52
21594;BME280;10959;51.328;7.322;2023-03-22T00:35:31;98249.22;;;12.50;71.97
21594;BME280;10959;51.328;7.322;2023-03-22T00:37:57;98247.03;;;12.42;71.84
21594;BME280;10959;51.328;7.322;2023-03-22T00:40:30;98251.81;;;12.51;71.69
21594;BME280;10959;51.328;7.322;2023-03-22T00:42:57;98252.03;;;12.48;71.81
21594;BME280;10959;51.328;7.322;2023-03-22T00:45:25;98236.69;;;12.49;72.16
21594;BME280;10959;51.328;7.322;2023-03-22T00:47:51;98246.22;;;12.54;71.81
21594;BME280;10959;51.328;7.322;2023-03-22T00:50:18;98238.88;;;12.56;71.84
21594;BME280;10959;51.328;7.322;2023-03-22T00:52:44;98236.41;;;12.53;72.04
21594;BME280;10959;51.328;7.322;2023-03-22T00:55:11;98228.47;;;12.50;72.15
21594;BME280;10959;51.328;7.322;2023-03-22T00:57:37;98239.28;;;12.50;72.25
21594;BME280;10959;51.328;7.322;2023-03-22T01:00:05;98225.50;;;12.55;72.20
21594;BME280;10959;51.328;7.322;2023-03-22T01:02:41;98224.59;;;12.54;72.19
21594;BME280;10959;51.328;7.322;2023-03-22T01:05:09;98214.91;;;12.52;72.71
21594;BME280;10959;51.328;7.322;2023-03-22T01:07:40;98209.69;;;12.49;72.55
21594;BME280;10959;51.328;7.322;2023-03-22T01:10:07;98206.69;;;12.53;72.28
21594;BME280;10959;51.328;7.322;2023-03-22T01:12:34;98204.84;;;12.54;72.65
21594;BME280;10959;51.328;7.322;2023-03-22T01:15:01;98206.69;;;12.53;72.75
21594;BME280;10959;51.328;7.322;2023-03-22T01:17:27;98195.88;;;12.53;72.58
21594;BME280;10959;51.328;7.322;2023-03-22T01:19:55;98197.59;;;12.54;72.50
21594;BME280;10959;51.328;7.322;2023-03-22T01:22:22;98196.06;;;12.50;72.73
21594;BME280;10959;51.328;7.322;2023-03-22T01:24:49;98192.41;;;12.51;72.48
21594;BME280;10959;51.328;7.322;2023-03-22T01:27:15;98193.28;;;12.52;72.46
21594;BME280;10959;51.328;7.322;2023-03-22T01:29:42;98194.16;;;12.52;72.54
21594;BME280;10959;51.328;7.322;2023-03-22T01:32:08;98186.38;;;12.48;72.53
21594;BME280;10959;51.328;7.322;2023-03-22T01:34:35;98185.47;;;12.47;72.69
21594;BME280;10959;51.328;7.322;2023-03-22T01:37:03;98185.91;;;12.41;72.56
21594;BME280;10959;51.328;7.322;2023-03-22T01:39:29;98184.16;;;12.40;72.72
21594;BME280;10959;51.328;7.322;2023-03-22T01:41:57;98187.63;;;12.42;72.76
21594;BME280;10959;51.328;7.322;2023-03-22T01:44:23;98180.50;;;12.41;72.65
21594;BME280;10959;51.328;7.322;2023-03-22T01:46:50;98177.22;;;12.36;73.06
21594;BME280;10959;51.328;7.322;2023-03-22T01:49:20;98174.38;;;12.24;73.06
21594;BME280;10959;51.328;7.322;2023-03-22T01:51:50;98173.44;;;12.25;73.24
21594;BME280;10959;51.328;7.322;2023-03-22T01:54:22;98170.94;;;12.22;73.28
21594;BME280;10959;51.328;7.322;2023-03-22T01:56:50;98164.91;;;12.32;73.33
21594;BME280;10959;51.328;7.322;2023-03-22T01:59:17;98161.91;;;12.36;73.05
21594;BME280;10959;51.328;7.322;2023-03-22T02:01:43;98156.81;;;12.32;73.14
21594;BME280;10959;51.328;7.322;2023-03-22T02:04:14;98168.81;;;12.27;73.32
21594;BME280;10959;51.328;7.322;2023-03-22T02:06:41;98152.41;;;12.31;73.48
21594;BME280;10959;51.328;7.322;2023-03-22T02:09:10;98156.81;;;12.32;73.37
21594;BME280;10959;51.328;7.322;2023-03-22T02:11:40;98146.53;;;12.24;73.19
21594;BME280;10959;51.328;7.322;2023-03-22T02:14:18;98143.19;;;12.20;73.42
21594;BME280;10959;51.328;7.322;2023-03-22T02:16:57;98134.63;;;12.14;73.71
21594;BME280;10959;51.328;7.322;2023-03-22T02:20:13;98138.84;;;11.90;73.77
21594;BME280;10959;51.328;7.322;2023-03-22T02:23:13;98131.31;;;11.96;74.02
21594;BME280;10959;51.328;7.322;2023-03-22T02:26:20;98131.91;;;11.86;74.15
21594;BME280;10959;51.328;7.322;2023-03-22T02:28:59;98124.00;;;11.98;74.13
21594;BME280;10959;51.328;7.322;2023-03-22T02:31:48;98128.22;;;11.87;74.25
21594;BME280;10959;51.328;7.322;2023-03-22T02:34:41;98126.88;;;11.80;74.46
21594;BME280;10959;51.328;7.322;2023-03-22T02:37:40;98130.78;;;11.76;74.89
21594;BME280;10959;51.328;7.322;2023-03-22T02:40:13;98129.19;;;12.01;74.28
21594;BME280;10959;51.328;7.322;2023-03-22T02:42:46;98123.59;;;12.04;74.46
21594;BME280;10959;51.328;7.322;2023-03-22T02:45:24;98127.03;;;12.06;74.22
21594;BME280;10959;51.328;7.322;2023-03-22T02:47:58;98119.28;;;12.14;74.16
21594;BME280;10959;51.328;7.322;2023-03-22T02:50:29;98118.44;;;12.14;74.19
21594;BME280;10959;51.328;7.322;2023-03-22T02:53:01;98103.53;;;12.08;74.15
21594;BME280;10959;51.328;7.322;2023-03-22T02:55:33;98114.53;;;12.05;74.09
21594;BME280;10959;51.328;7.322;2023-03-22T02:58:04;98105.06;;;12.12;74.29
21594;BME280;10959;51.328;7.322;2023-03-22T03:00:32;98106.75;;;12.13;74.31
21594;BME280;10959;51.328;7.322;2023-03-22T03:03:05;98103.31;;;12.11;74.11
21594;BME280;10959;51.328;7.322;2023-03-22T03:05:37;98102.13;;;12.15;73.91
21594;BME280;10959;51.328;7.322;2023-03-22T03:08:05;98104.84;;;12.15;74.12
21594;BME280;10959;51.328;7.322;2023-03-22T03:10:34;98095.97;;;12.13;74.13
21594;BME280;10959;51.328;7.322;2023-03-22T03:13:02;98093.38;;;12.12;74.50
21594;BME280;10959;51.328;7.322;2023-03-22T03:15:28;98093.59;;;12.08;74.67
21594;BME280;10959;51.328;7.322;2023-03-22T03:18:09;98084.50;;;11.97;74.42
21594;BME280;10959;51.328;7.322;2023-03-22T03:20:48;98080.41;;;12.04;74.18
21594;BME280;10959;51.328;7.322;2023-03-22T03:23:27;98084.69;;;11.93;74.54
21594;BME280;10959;51.328;7.322;2023-03-22T03:26:01;98079.47;;;11.90;74.73
21594;BME280;10959;51.328;7.322;2023-03-22T03:28:35;98077.16;;;11.99;74.26
21594;BME280;10959;51.328;7.322;2023-03-22T03:31:09;98078.34;;;11.95;74.54
21594;BME280;10959;51.328;7.322;2023-03-22T03:33:44;98074.25;;;11.87;74.50
21594;BME280;10959;51.328;7.322;2023-03-22T03:36:15;98070.25;;;11.95;74.58
21594;BME280;10959;51.328;7.322;2023-03-22T03:38:45;98082.63;;;11.70;75.13
21594;BME280;10959;51.328;7.322;2023-03-22T03:41:16;98067.38;;;11.83;75.06
21594;BME280;10959;51.328;7.322;2023-03-22T03:43:44;98072.34;;;11.89;74.94
21594;BME280;10959;51.328;7.322;2023-03-22T03:46:12;98065.22;;;11.88;74.82
21594;BME280;10959;51.328;7.322;2023-03-22T03:48:41;98069.97;;;11.85;74.95
21594;BME280;10959;51.328;7.322;2023-03-22T03:51:09;98065.53;;;11.84;74.80
21594;BME280;10959;51.328;7.322;2023-03-22T03:53:35;98060.25;;;11.82;74.84
21594;BME280;10959;51.328;7.322;2023-03-22T03:56:02;98063.69;;;11.84;74.83
21594;BME280;10959;51.328;7.322;2023-03-22T03:58:30;98059.38;;;11.82;74.80
21594;BME280;10959;51.328;7.322;2023-03-22T04:00:57;98055.25;;;11.76;75.09
21594;BME280;10959;51.328;7.322;2023-03-22T04:03:23;98059.47;;;11.80;74.97
21594;BME280;10959;51.328;7.322;2023-03-22T04:05:50;98058.91;;;11.75;75.18
21594;BME280;10959;51.328;7.322;2023-03-22T04:08:16;98059.13;;;11.72;75.39
21594;BME280;10959;51.328;7.322;2023-03-22T04:10:48;98072.25;;;11.64;75.54
21594;BME280;10959;51.328;7.322;2023-03-22T04:13:14;98066.34;;;11.71;75.29
21594;BME280;10959;51.328;7.322;2023-03-22T04:15:42;98063.59;;;11.58;75.66
21594;BME280;10959;51.328;7.322;2023-03-22T04:18:09;98065.31;;;11.59;75.69
21594;BME280;10959;51.328;7.322;2023-03-22T04:20:36;98055.50;;;11.58;75.66
21594;BME280;10959;51.328;7.322;2023-03-22T04:23:03;98058.19;;;11.58;75.67
21594;BME280;10959;51.328;7.322;2023-03-22T04:25:29;98058.19;;;11.58;75.63
21594;BME280;10959;51.328;7.322;2023-03-22T04:27:58;98058.19;;;11.58;75.73
21594;BME280;10959;51.328;7.322;2023-03-22T04:30:24;98060.13;;;11.56;75.50
21594;BME280;10959;51.328;7.322;2023-03-22T04:32:53;98061.88;;;11.57;75.51
21594;BME280;10959;51.328;7.322;2023-03-22T04:35:20;98059.56;;;11.51;76.13
21594;BME280;10959;51.328;7.322;2023-03-22T04:37:47;98059.56;;;11.51;75.81
21594;BME280;10959;51.328;7.322;2023-03-22T04:40:14;98060.34;;;11.53;75.94
21594;BME280;10959;51.328;7.322;2023-03-22T04:42:41;98057.28;;;11.45;76.42
21594;BME280;10959;51.328;7.322;2023-03-22T04:45:09;98059.19;;;11.43;76.58
21594;BME280;10959;51.328;7.322;2023-03-22T04:47:35;98061.59;;;11.48;76.41
21594;BME280;10959;51.328;7.322;2023-03-22T04:50:04;98059.00;;;11.46;76.06
21594;BME280;10959;51.328;7.322;2023-03-22T04:52:31;98055.63;;;11.43;76.35
21594;BME280;10959;51.328;7.322;2023-03-22T04:54:57;98058.66;;;11.38;76.95
21594;BME280;10959;51.328;7.322;2023-03-22T04:57:24;98063.25;;;11.36;76.92
21594;BME280;10959;51.328;7.322;2023-03-22T04:59:50;98052.66;;;11.33;76.92
21594;BME280;10959;51.328;7.322;2023-03-22T05:02:17;98046.91;;;11.39;76.83
21594;BME280;10959;51.328;7.322;2023-03-22T05:04:43;98041.41;;;11.40;77.25
21594;BME280;10959;51.328;7.322;2023-03-22T05:07:11;98041.31;;;11.42;76.85
21594;BME280;10959;51.328;7.322;2023-03-22T05:09:38;98037.94;;;11.38;76.90
21594;BME280;10959;51.328;7.322;2023-03-22T05:12:04;98043.00;;;11.43;76.94
21594;BME280;10959;51.328;7.322;2023-03-22T05:14:31;98044.97;;;11.41;77.17
21594;BME280;10959;51.328;7.322;2023-03-22T05:16:57;98048.63;;;11.40;77.20
21594;BME280;10959;51.328;7.322;2023-03-22T05:19:24;98041.88;;;11.33;77.15
21594;BME280;10959;51.328;7.322;2023-03-22T05:21:51;98045.16;;;11.38;77.09
21594;BME280;10959;51.328;7.322;2023-03-22T05:24:23;98053.47;;;11.35;76.94
21594;BME280;10959;51.328;7.322;2023-03-22T05:26:50;98045.16;;;11.38;77.39
21594;BME280;10959;51.328;7.322;2023-03-22T05:29:18;98036.97;;;11.39;77.20
21594;BME280;10959;51.328;7.322;2023-03-22T05:31:45;98039.97;;;11.35;77.53
21594;BME280;10959;51.328;7.322;2023-03-22T05:34:11;98037.81;;;11.40;77.27
21594;BME280;10959;51.328;7.322;2023-03-22T05:36:38;98039.19;;;11.33;77.97
21594;BME280;10959;51.328;7.322;2023-03-22T05:39:05;98031.59;;;11.39;77.51
21594;BME280;10959;51.328;7.322;2023-03-22T05:41:33;98034.19;;;11.41;77.46
21594;BME280;10959;51.328;7.322;2023-03-22T05:44:00;98036.88;;;11.41;77.77
21594;BME280;10959;51.328;7.322;2023-03-22T05:46:26;98038.03;;;11.37;78.03
21594;BME280;10959;51.328;7.322;2023-03-22T05:48:52;98035.91;;;11.42;77.96
21594;BME280;10959;51.328;7.322;2023-03-22T05:51:19;98030.91;;;11.36;78.59
21594;BME280;10959;51.328;7.322;2023-03-22T05:53:46;98039.34;;;11.44;78.24
21594;BME280;10959;51.328;7.322;2023-03-22T05:56:13;98039.34;;;11.44;78.08
21594;BME280;10959;51.328;7.322;2023-03-22T05:58:41;98034.84;;;11.45;77.94
21594;BME280;10959;51.328;7.322;2023-03-22T06:01:11;98031.66;;;11.52;77.73
21594;BME280;10959;51.328;7.322;2023-03-22T06:03:40;98028.94;;;11.52;78.04
21594;BME280;10959;51.328;7.322;2023-03-22T06:06:08;98028.63;;;11.57;78.17
21594;BME280;10959;51.328;7.322;2023-03-22T06:08:36;98018.72;;;11.57;77.99
21594;BME280;10959;51.328;7.322;2023-03-22T06:11:03;98018.53;;;11.61;78.00
21594;BME280;10959;51.328;7.322;2023-03-22T06:13:29;98019.84;;;11.68;77.46
21594;BME280;10959;51.328;7.322;2023-03-22T06:15:59;98019.16;;;11.64;77.30
21594;BME280;10959;51.328;7.322;2023-03-22T06:18:26;98021.38;;;11.72;77.81
21594;BME280;10959;51.328;7.322;2023-03-22T06:20:52;98017.69;;;11.73;77.69
21594;BME280;10959;51.328;7.322;2023-03-22T06:23:19;98020.94;;;11.78;77.54
21594;BME280;10959;51.328;7.322;2023-03-22T06:25:45;98014.66;;;11.65;77.90
21594;BME280;10959;51.328;7.322;2023-03-22T06:28:12;98019.00;;;11.80;77.53
21594;BME280;10959;51.328;7.322;2023-03-22T06:30:38;98010.16;;;11.78;77.59
21594;BME280;10959;51.328;7.322;2023-03-22T06:33:06;98017.63;;;11.87;77.04
21594;BME280;10959;51.328;7.322;2023-03-22T06:35:33;98022.03;;;11.88;76.99
21594;BME280;10959;51.328;7.322;2023-03-22T06:38:00;98016.66;;;11.88;77.15
21594;BME280;10959;51.328;7.322;2023-03-22T06:40:27;98020.88;;;11.92;77.01
21594;BME280;10959;51.328;7.322;2023-03-22T06:43:02;98014.56;;;11.93;76.93
21594;BME280;10959;51.328;7.322;2023-03-22T06:45:31;98023.56;;;11.92;77.47
21594;BME280;10959;51.328;7.322;2023-03-22T06:47:58;98028.28;;;12.03;76.98
21594;BME280;10959;51.328;7.322;2023-03-22T06:50:27;98026.66;;;12.01;76.67
21594;BME280;10959;51.328;7.322;2023-03-22T06:52:54;98028.78;;;11.96;77.15
21594;BME280;10959;51.328;7.322;2023-03-22T06:55:20;98040.88;;;12.03;77.27
21594;BME280;10959;51.328;7.322;2023-03-22T06:57:46;98042.41;;;12.07;77.08
21594;BME280;10959;51.328;7.322;2023-03-22T07:00:14;98030.31;;;12.00;76.77
21594;BME280;10959;51.328;7.322;2023-03-22T07:02:40;98022.34;;;12.11;77.23
21594;BME280;10959;51.328;7.322;2023-03-22T07:05:08;98026.00;;;12.10;77.04
21594;BME280;10959;51.328;7.322;2023-03-22T07:07:35;98016.34;;;12.20;76.73
21594;BME280;10959;51.328;7.322;2023-03-22T07:10:03;98015.47;;;12.33;76.68
21594;BME280;10959;51.328;7.322;2023-03-22T07:12:30;98018.94;;;12.35;76.68
21594;BME280;10959;51.328;7.322;2023-03-22T07:14:56;98012.44;;;12.50;76.03
21594;BME280;10959;51.328;7.322;2023-03-22T07:17:22;98014.72;;;12.56;76.05
21594;BME280;10959;51.328;7.322;2023-03-22T07:19:49;98005.97;;;12.66;75.67
21594;BME280;10959;51.328;7.322;2023-03-22T07:22:15;98004.25;;;12.65;75.47
21594;BME280;10959;51.328;7.322;2023-03-22T07:24:43;98001.00;;;12.59;75.56
21594;BME280;10959;51.328;7.322;2023-03-22T07:27:10;98002.94;;;12.57;75.67
21594;BME280;10959;51.328;7.322;2023-03-22T07:29:37;97998.06;;;12.62;75.28
21594;BME280;10959;51.328;7.322;2023-03-22T07:32:04;97994.19;;;12.67;75.29
21594;BME280;10959;51.328;7.322;2023-03-22T07:34:30;97993.66;;;12.61;75.33
21594;BME280;10959;51.328;7.322;2023-03-22T07:36:57;98001.44;;;12.66;75.47
21594;BME280;10959;51.328;7.322;2023-03-22T07:39:24;97999.03;;;12.61;75.23
21594;BME280;10959;51.328;7.322;2023-03-22T07:41:54;97995.81;;;12.82;74.79
21594;BME280;10959;51.328;7.322;2023-03-22T07:44:21;97993.34;;;13.16;74.29
21594;BME280;10959;51.328;7.322;2023-03-22T07:46:48;98006.06;;;13.40;73.49
21594;BME280;10959;51.328;7.322;2023-03-22T07:49:16;97994.63;;;13.60;73.37
21594;BME280;10959;51.328;7.322;2023-03-22T07:51:43;98004.06;;;13.90;72.83
21594;BME280;10959;51.328;7.322;2023-03-22T07:54:10;97990.13;;;14.08;71.95
21594;BME280;10959;51.328;7.322;2023-03-22T07:56:36;97986.59;;;14.18;71.09
21594;BME280;10959;51.328;7.322;2023-03-22T07:59:04;97984.53;;;14.33;70.39
21594;BME280;10959;51.328;7.322;2023-03-22T08:01:31;97993.78;;;14.42;69.58
21594;BME280;10959;51.328;7.322;2023-03-22T08:03:57;97986.03;;;14.60;69.61
21594;BME280;10959;51.328;7.322;2023-03-22T08:06:24;97985.94;;;14.73;69.39
21594;BME280;10959;51.328;7.322;2023-03-22T08:08:51;97985.81;;;14.86;69.59
21594;BME280;10959;51.328;7.322;2023-03-22T08:11:17;97982.38;;;14.95;68.63
21594;BME280;10959;51.328;7.322;2023-03-22T08:13:43;97980.19;;;14.89;67.55
21594;BME280;10959;51.328;7.322;2023-03-22T08:16:11;97980.19;;;14.66;67.63
21594;BME280;10959;51.328;7.322;2023-03-22T08:18:38;97982.34;;;14.61;68.17
21594;BME280;10959;51.328;7.322;2023-03-22T08:21:05;97987.16;;;14.58;68.33
21594;BME280;10959;51.328;7.322;2023-03-22T08:23:31;97980.72;;;14.47;68.30
21594;BME280;10959;51.328;7.322;2023-03-22T08:25:58;97979.88;;;14.47;68.12
21594;BME280;10959;51.328;7.322;2023-03-22T08:28:24;97989.53;;;14.62;67.80
21594;BME280;10959;51.328;7.322;2023-03-22T08:30:51;97983.13;;;14.75;68.17
21594;BME280;10959;51.328;7.322;2023-03-22T08:33:18;97981.88;;;14.79;67.02
21594;BME280;10959;51.328;7.322;2023-03-22T08:35:48;97986.06;;;15.06;66.46
21594;BME280;10959;51.328;7.322;2023-03-22T08:38:14;97983.47;;;15.04;65.29
21594;BME280;10959;51.328;7.322;2023-03-22T08:40:44;97978.41;;;15.22;65.50
21594;BME280;10959;51.328;7.322;2023-03-22T08:43:11;97986.75;;;15.30;65.04
21594;BME280;10959;51.328;7.322;2023-03-22T08:45:37;97982.50;;;15.16;64.41
21594;BME280;10959;51.328;7.322;2023-03-22T08:48:04;97986.81;;;15.19;65.24
21594;BME280;10959;51.328;7.322;2023-03-22T08:50:32;97988.91;;;15.15;65.34
21594;BME280;10959;51.328;7.322;2023-03-22T08:52:59;97989.88;;;15.14;65.05
21594;BME280;10959;51.328;7.322;2023-03-22T08:55:25;97977.41;;;15.12;64.72
21594;BME280;10959;51.328;7.322;2023-03-22T08:57:52;97990.00;;;15.24;64.67
21594;BME280;10959;51.328;7.322;2023-03-22T09:00:22;97983.31;;;15.40;64.94
21594;BME280;10959;51.328;7.322;2023-03-22T09:02:49;97987.22;;;15.47;63.73
21594;BME280;10959;51.328;7.322;2023-03-22T09:05:16;97990.03;;;15.57;63.08
21594;BME280;10959;51.328;7.322;2023-03-22T09:07:43;97984.72;;;15.66;63.38
21594;BME280;10959;51.328;7.322;2023-03-22T09:10:10;97980.75;;;15.70;63.26
21594;BME280;10959;51.328;7.322;2023-03-22T09:12:37;97977.78;;;15.85;62.77
21594;BME280;10959;51.328;7.322;2023-03-22T09:15:04;97961.75;;;16.03;62.60
21594;BME280;10959;51.328;7.322;2023-03-22T09:17:31;97975.66;;;16.10;62.18
21594;BME280;10959;51.328;7.322;2023-03-22T09:19:58;97973.94;;;16.09;62.00
21594;BME280;10959;51.328;7.322;2023-03-22T09:22:24;97980.16;;;16.41;61.44
21594;BME280;10959;51.328;7.322;2023-03-22T09:24:52;97972.41;;;16.37;61.14
21594;BME280;10959;51.328;7.322;2023-03-22T09:27:18;97969.84;;;16.35;61.02
21594;BME280;10959;51.328;7.322;2023-03-22T09:29:45;97976.19;;;16.46;60.70
21594;BME280;10959;51.328;7.322;2023-03-22T09:32:13;97960.28;;;16.62;59.30
21594;BME280;10959;51.328;7.322;2023-03-22T09:34:40;97958.44;;;16.72;58.98
21594;BME280;10959;51.328;7.322;2023-03-22T09:37:06;97965.31;;;16.46;58.77
21594;BME280;10959;51.328;7.322;2023-03-22T09:39:32;97973.50;;;16.76;58.89
21594;BME280;10959;51.328;7.322;2023-03-22T09:42:06;97979.31;;;16.93;58.17
21594;BME280;10959;51.328;7.322;2023-03-22T09:44:38;97972.78;;;17.05;57.20
21594;BME280;10959;51.328;7.322;2023-03-22T09:47:12;97969.41;;;17.23;57.01
21594;BME280;10959;51.328;7.322;2023-03-22T09:49:43;97967.97;;;17.28;56.66
21594;BME280;10959;51.328;7.322;2023-03-22T09:52:14;97971.69;;;17.18;55.02
21594;BME280;10959;51.328;7.322;2023-03-22T09:54:42;97956.16;;;16.99;54.90
21594;BME280;10959;51.328;7.322;2023-03-22T09:57:19;97954.75;;;16.73;56.43
21594;BME280;10959;51.328;7.322;2023-03-22T09:59:54;97941.06;;;16.85;55.57
21594;BME280;10959;51.328;7.322;2023-03-22T10:02:33;97944.13;;;17.01;55.92
21594;BME280;10959;51.328;7.322;2023-03-22T10:05:16;97948.75;;;17.10;54.87
21594;BME280;10959;51.328;7.322;2023-03-22T10:07:58;97965.72;;;16.93;55.91
21594;BME280;10959;51.328;7.322;2023-03-22T10:10:29;97964.63;;;17.05;55.99
21594;BME280;10959;51.328;7.322;2023-03-22T10:13:01;97967.91;;;16.99;55.90
21594;BME280;10959;51.328;7.322;2023-03-22T10:15:34;97968.72;;;16.90;55.78
21594;BME280;10959;51.328;7.322;2023-03-22T10:18:05;97967.22;;;16.86;55.44
21594;BME280;10959;51.328;7.322;2023-03-22T10:20:37;97959.44;;;16.71;55.68
21594;BME280;10959;51.328;7.322;2023-03-22T10:23:09;97962.91;;;16.73;55.69
21594;BME280;10959;51.328;7.322;2023-03-22T10:25:39;97958.47;;;17.03;56.41
21594;BME280;10959;51.328;7.322;2023-03-22T10:28:16;97957.28;;;16.96;56.19
21594;BME280;10959;51.328;7.322;2023-03-22T10:30:46;97956.47;;;17.05;55.53
21594;BME280;10959;51.328;7.322;2023-03-22T10:33:24;97959.31;;;17.04;56.33
21594;BME280;10959;51.328;7.322;2023-03-22T10:35:53;97961.63;;;17.08;55.32
21594;BME280;10959;51.328;7.322;2023-03-22T10:38:23;97964.16;;;17.00;53.97
21594;BME280;10959;51.328;7.322;2023-03-22T10:40:52;97960.19;;;17.04;55.42
21594;BME280;10959;51.328;7.322;2023-03-22T10:43:25;97960.44;;;17.01;55.68
21594;BME280;10959;51.328;7.322;2023-03-22T10:45:54;97967.06;;;17.08;55.86
21594;BME280;10959;51.328;7.322;2023-03-22T10:48:26;97969.41;;;17.23;56.58
21594;BME280;10959;51.328;7.322;2023-03-22T10:50:54;97979.75;;;17.29;55.78
21594;BME280;10959;51.328;7.322;2023-03-22T10:53:32;97974.50;;;17.06;55.72
21594;BME280;10959;51.328;7.322;2023-03-22T10:56:00;97976.81;;;17.11;55.88
21594;BME280;10959;51.328;7.322;2023-03-22T10:58:32;97975.13;;;17.20;56.15
21594;BME280;10959;51.328;7.322;2023-03-22T11:01:03;97980.88;;;17.26;55.60
21594;BME280;10959;51.328;7.322;2023-03-22T11:03:36;97964.56;;;17.36;55.96
21594;BME280;10959;51.328;7.322;2023-03-22T11:06:06;97968.34;;;17.55;55.77
21594;BME280;10959;51.328;7.322;2023-03-22T11:08:42;97973.47;;;17.48;55.13
21594;BME280;10959;51.328;7.322;2023-03-22T11:11:15;97969.44;;;17.42;55.59
21594;BME280;10959;51.328;7.322;2023-03-22T11:13:48;97979.75;;;17.49;55.67
21594;BME280;10959;51.328;7.322;2023-03-22T11:16:16;97967.47;;;17.64;55.19
21594;BME280;10959;51.328;7.322;2023-03-22T11:18:43;97974.06;;;17.71;54.61
21594;BME280;10959;51.328;7.322;2023-03-22T11:21:10;97971.50;;;17.79;54.76
21594;BME280;10959;51.328;7.322;2023-03-22T11:23:40;97957.31;;;17.86;54.57
21594;BME280;10959;51.328;7.322;2023-03-22T11:26:09;97968.94;;;17.88;54.29
21594;BME280;10959;51.328;7.322;2023-03-22T11:28:41;97967.06;;;17.78;54.32
21594;BME280;10959;51.328;7.322;2023-03-22T11:31:10;97965.47;;;17.86;54.27
21594;BME280;10959;51.328;7.322;2023-03-22T11:33:44;97959.16;;;17.75;54.08
21594;BME280;10959;51.328;7.322;2023-03-22T11:36:18;97956.00;;;17.80;54.11
21594;BME280;10959;51.328;7.322;2023-03-22T11:38:45;97962.59;;;17.77;53.68
21594;BME280;10959;51.328;7.322;2023-03-22T11:41:19;97962.75;;;17.66;53.59
21594;BME280;10959;51.328;7.322;2023-03-22T11:43:47;97953.56;;;17.67;53.46
21594;BME280;10959;51.328;7.322;2023-03-22T11:46:17;97952.00;;;17.55;53.64
21594;BME280;10959;51.328;7.322;2023-03-22T11:48:45;97948.84;;;17.50;53.99
21594;BME280;10959;51.328;7.322;2023-03-22T11:51:14;97947.09;;;17.49;53.89
21594;BME280;10959;51.328;7.322;2023-03-22T11:53:44;97967.19;;;17.48;53.90
21594;BME280;10959;51.328;7.322;2023-03-22T11:56:16;97955.09;;;17.31;53.95
21594;BME280;10959;51.328;7.322;2023-03-22T11:58:49;97966.50;;;17.15;53.44
21594;BME280;10959;51.328;7.322;2023-03-22T12:01:30;97954.03;;;17.02;53.85
21594;BME280;10959;51.328;7.322;2023-03-22T12:04:00;97953.03;;;17.03;53.46
21594;BME280;10959;51.328;7.322;2023-03-22T12:06:31;97959.84;;;16.88;53.03
21594;BME280;10959;51.328;7.322;2023-03-22T12:09:02;97953.19;;;16.81;53.20
21594;BME280;10959;51.328;7.322;2023-03-22T12:11:33;97954.75;;;16.73;54.28
21594;BME280;10959;51.328;7.322;2023-03-22T12:14:04;97947.13;;;16.67;54.57
21594;BME280;10959;51.328;7.322;2023-03-22T12:16:41;97951.91;;;16.54;54.67
21594;BME280;10959;51.328;7.322;2023-03-22T12:19:18;97935.88;;;16.51;54.05
21594;BME280;10959;51.328;7.322;2023-03-22T12:21:47;97936.50;;;16.64;54.40
21594;BME280;10959;51.328;7.322;2023-03-22T12:24:23;97931.16;;;16.53;54.91
21594;BME280;10959;51.328;7.322;2023-03-22T12:26:51;97928.19;;;16.56;52.86
21594;BME280;10959;51.328;7.322;2023-03-22T12:29:19;97935.88;;;16.51;53.98
21594;BME280;10959;51.328;7.322;2023-03-22T12:31:56;97933.13;;;16.41;53.47
21594;BME280;10959;51.328;7.322;2023-03-22T12:34:31;97926.41;;;16.45;54.01
21594;BME280;10959;51.328;7.322;2023-03-22T12:37:01;97928.19;;;16.56;54.02
21594;BME280;10959;51.328;7.322;2023-03-22T12:39:32;97924.75;;;16.54;54.25
21594;BME280;10959;51.328;7.322;2023-03-22T12:42:05;97911.72;;;16.57;54.25
21594;BME280;10959;51.328;7.322;2023-03-22T12:44:39;97923.56;;;16.47;53.50
21594;BME280;10959;51.328;7.322;2023-03-22T12:47:15;97924.91;;;16.31;54.19
21594;BME280;10959;51.328;7.322;2023-03-22T12:49:50;97924.91;;;16.31;54.19
21594;BME280;10959;51.328;7.322;2023-03-22T12:52:23;97931.16;;;16.22;52.83
21594;BME280;10959;51.328;7.322;2023-03-22T12:54:52;97919.75;;;16.28;53.70
21594;BME280;10959;51.328;7.322;2023-03-22T12:57:20;97927.16;;;16.26;53.19
21594;BME280;10959;51.328;7.322;2023-03-22T12:59:49;97933.34;;;16.28;53.41
21594;BME280;10959;51.328;7.322;2023-03-22T13:02:21;97939.31;;;16.22;53.54
21594;BME280;10959;51.328;7.322;2023-03-22T13:04:53;97943.22;;;16.29;53.95
21594;BME280;10959;51.328;7.322;2023-03-22T13:07:37;97941.88;;;16.02;54.20
21594;BME280;10959;51.328;7.322;2023-03-22T13:10:37;97938.19;;;16.03;54.79
21594;BME280;10959;51.328;7.322;2023-03-22T13:13:12;97945.25;;;16.16;54.50